sensor_id;sensor_type;location;lat;lon;timestamp;pressure;altitude;pressure_sealevel;temperature;humidity
31011;BME280;26395;53.412;19.598;2023-03-26T00:12:26;98890.81;;;10.86;88.48
31011;BME280;26395;53.412;19.598;2023-03-26T00:27:29;98879.71;;;10.68;89.25
31011;BME280;26395;53.412;19.598;2023-03-26T00:42:32;98876.39;;;10.71;88.69
31011;BME280;26395;53.412;19.598;2023-03-26T00:57:36;98860.48;;;10.66;88.89
31011;BME280;26395;53.412;19.598;2023-03-26T01:12:39;98848.82;;;10.62;89.10
31011;BME280;26395;53.412;19.598;2023-03-26T01:27:53;98840.80;;;10.60;89.45
31011;BME280;26395;53.412;19.598;2023-03-26T01:42:59;98830.51;;;10.61;89.53
31011;BME280;26395;53.412;19.598;2023-03-26T02:13:10;98814.70;;;10.55;90.76
31011;BME280;26395;53.412;19.598;2023-03-26T02:28:14;98804.98;;;10.51;91.28
31011;BME280;26395;53.412;19.598;2023-03-26T02:43:19;98782.87;;;10.49;91.55
31011;BME280;26395;53.412;19.598;2023-03-26T02:58:23;98777.34;;;10.48;91.61
31011;BME280;26395;53.412;19.598;2023-03-26T03:13:28;98774.55;;;10.48;92.17
31011;BME280;26395;53.412;19.598;2023-03-26T03:28:32;98767.06;;;10.51;91.59
31011;BME280;26395;53.412;19.598;2023-03-26T03:43:35;98774.16;;;10.47;92.10
31011;BME280;26395;53.412;19.598;2023-03-26T03:58:52;98766.45;;;10.44;92.33
31011;BME280;26395;53.412;19.598;2023-03-26T04:14:03;98763.86;;;10.39;92.64
31011;BME280;26395;53.412;19.598;2023-03-26T04:29:37;98755.39;;;10.36;92.73
31011;BME280;26395;53.412;19.598;2023-03-26T04:44:49;98742.48;;;10.36;92.28
31011;BME280;26395;53.412;19.598;2023-03-26T04:59:53;98735.19;;;10.33;93.47
31011;BME280;26395;53.412;19.598;2023-03-26T05:14:56;98731.18;;;10.16;95.09
31011;BME280;26395;53.412;19.598;2023-03-26T05:30:26;98731.38;;;10.24;96.46
31011;BME280;26395;53.412;19.598;2023-03-26T05:45:33;98728.21;;;10.23;97.29
31011;BME280;26395;53.412;19.598;2023-03-26T06:00:46;98726.40;;;10.33;96.66
31011;BME280;26395;53.412;19.598;2023-03-26T06:15:53;98726.33;;;10.38;96.83
31011;BME280;26395;53.412;19.598;2023-03-26T06:31:04;98732.34;;;10.64;95.69
31011;BME280;26395;53.412;19.598;2023-03-26T06:46:16;98725.96;;;10.77;94.41
31011;BME280;26395;53.412;19.598;2023-03-26T07:01:30;98720.83;;;10.79;93.02
31011;BME280;26395;53.412;19.598;2023-03-26T07:16:52;98719.83;;;10.82;92.76
31011;BME280;26395;53.412;19.598;2023-03-26T07:47:33;98716.89;;;11.19;90.68
31011;BME280;26395;53.412;19.598;2023-03-26T08:34:21;98719.67;;;11.48;87.99
31011;BME280;26395;53.412;19.598;2023-03-26T09:05:44;98720.06;;;11.72;92.27
31011;BME280;26395;53.412;19.598;2023-03-26T10:38:12;98734.30;;;13.80;79.27
31011;BME280;26395;53.412;19.598;2023-03-26T10:53:41;98724.48;;;14.62;74.92
31011;BME280;26395;53.412;19.598;2023-03-26T11:39:56;98783.77;;;11.84;79.88
31011;BME280;26395;53.412;19.598;2023-03-26T11:55:01;98784.88;;;12.36;79.72
31011;BME280;26395;53.412;19.598;2023-03-26T12:10:09;98773.45;;;13.62;76.85
31011;BME280;26395;53.412;19.598;2023-03-26T12:25:25;98778.95;;;14.42;74.53
31011;BME280;26395;53.412;19.598;2023-03-26T12:40:33;98769.01;;;15.01;72.39
31011;BME280;26395;53.412;19.598;2023-03-26T13:26:26;98753.17;;;15.48;67.31
31011;BME280;26395;53.412;19.598;2023-03-26T13:41:46;98761.45;;;16.43;62.24
31011;BME280;26395;53.412;19.598;2023-03-26T13:57:01;98757.73;;;16.86;60.85
31011;BME280;26395;53.412;19.598;2023-03-26T14:27:57;98750.09;;;21.02;51.48
31011;BME280;26395;53.412;19.598;2023-03-26T16:03:23;98805.99;;;13.13;71.91
31011;BME280;26395;53.412;19.598;2023-03-26T16:18:40;98796.91;;;16.48;66.98
31011;BME280;26395;53.412;19.598;2023-03-26T17:04:18;98831.64;;;12.82;66.84
31011;BME280;26395;53.412;19.598;2023-03-26T17:19:55;98836.91;;;12.64;68.14
31011;BME280;26395;53.412;19.598;2023-03-26T17:35:01;98855.59;;;12.65;68.93
31011;BME280;26395;53.412;19.598;2023-03-26T17:50:16;98868.39;;;12.38;69.23
31011;BME280;26395;53.412;19.598;2023-03-26T18:05:27;98876.20;;;12.24;69.33
31011;BME280;26395;53.412;19.598;2023-03-26T18:20:34;98888.66;;;11.91;70.08
31011;BME280;26395;53.412;19.598;2023-03-26T18:35:43;98895.02;;;11.71;71.03
31011;BME280;26395;53.412;19.598;2023-03-26T18:50:53;98894.39;;;11.66;71.55
31011;BME280;26395;53.412;19.598;2023-03-26T19:05:59;98889.75;;;11.93;71.56
31011;BME280;26395;53.412;19.598;2023-03-26T19:21:04;98877.15;;;12.01;72.14
31011;BME280;26395;53.412;19.598;2023-03-26T19:51:37;98864.41;;;11.54;72.78
31011;BME280;26395;53.412;19.598;2023-03-26T20:06:40;98864.26;;;11.25;73.06
31011;BME280;26395;53.412;19.598;2023-03-26T20:21:46;98867.79;;;11.06;73.00
31011;BME280;26395;53.412;19.598;2023-03-26T20:36:50;98872.23;;;10.80;72.26
31011;BME280;26395;53.412;19.598;2023-03-26T20:51:57;98875.92;;;10.66;71.46
31011;BME280;26395;53.412;19.598;2023-03-26T21:07:01;98871.75;;;10.48;70.29
31011;BME280;26395;53.412;19.598;2023-03-26T21:22:35;98891.13;;;10.15;68.97
31011;BME280;26395;53.412;19.598;2023-03-26T21:37:42;98896.03;;;9.86;68.12
31011;BME280;26395;53.412;19.598;2023-03-26T21:52:48;98905.44;;;9.79;68.22
31011;BME280;26395;53.412;19.598;2023-03-26T22:07:55;98910.65;;;9.93;68.38
31011;BME280;26395;53.412;19.598;2023-03-26T22:22:58;98907.39;;;9.68;68.21
31011;BME280;26395;53.412;19.598;2023-03-26T22:38:03;98911.48;;;9.17;68.27
31011;BME280;26395;53.412;19.598;2023-03-26T22:53:06;98914.84;;;8.80;67.96
31011;BME280;26395;53.412;19.598;2023-03-26T23:08:10;98917.13;;;8.29;68.41
31011;BME280;26395;53.412;19.598;2023-03-26T23:23:14;98905.88;;;7.85;68.87
31011;BME280;26395;53.412;19.598;2023-03-26T23:38:17;98898.05;;;7.29;70.45
31011;BME280;26395;53.412;19.598;2023-03-26T23:53:23;98893.87;;;7.02;71.41
